Time;durP1;ratioP1;P1;durP2;ratioP2;P2;SDS_P1;SDS_P2;PMS_P1;PMS_P2;Temp;Humidity;BMP_temperature;BMP_pressure;BME280_temperature;BME280_humidity;BME280_pressure;Samples;Min_cycle;Max_cycle;Signal;HPM_P1;HPM_P2
2022/05/13 00:00:26;;;;;;;4.90;1.30;;;18.90;74.30;;;;;;1999496;28;20249;-73
2022/05/13 00:01:26;;;;;;;3.03;1.80;;;18.80;74.20;;;;;;2002819;28;20221;-73
2022/05/13 00:02:25;;;;;;;3.25;1.73;;;18.80;74.20;;;;;;2006387;28;20184;-73
2022/05/13 00:03:24;;;;;;;2.67;1.70;;;18.80;74.20;;;;;;2006259;28;20293;-74
2022/05/13 00:04:22;;;;;;;4.10;1.63;;;18.80;74.20;;;;;;2006542;28;20213;-75
2022/05/13 00:05:23;;;;;;;2.50;1.10;;;18.80;74.20;;;;;;2006040;28;20178;-74
2022/05/13 00:06:22;;;;;;;2.10;1.35;;;18.80;74.20;;;;;;2005887;28;20154;-74
2022/05/13 00:07:20;;;;;;;6.03;1.67;;;18.70;74.10;;;;;;2005844;28;20198;-74
2022/05/13 00:08:19;;;;;;;6.23;1.40;;;18.80;74.20;;;;;;2005300;28;20162;-74
2022/05/13 00:09:17;;;;;;;3.07;1.43;;;18.70;74.80;;;;;;2005870;28;20237;-73
2022/05/13 00:10:16;;;;;;;4.20;1.60;;;18.80;74.20;;;;;;2004950;28;20165;-74
2022/05/13 00:11:16;;;;;;;3.37;1.63;;;18.80;74.20;;;;;;2005595;28;20186;-75
2022/05/13 00:12:15;;;;;;;4.90;2.17;;;18.70;74.20;;;;;;2005374;28;20177;-74
2022/05/13 00:13:14;;;;;;;3.10;1.63;;;18.80;74.30;;;;;;2005766;28;20184;-74
2022/05/13 00:14:12;;;;;;;5.67;1.33;;;18.70;74.20;;;;;;2005420;28;20412;-73
2022/05/13 00:15:16;;;;;;;5.10;1.37;;;18.70;74.10;;;;;;2005408;28;20412;-74
2022/05/13 00:16:15;;;;;;;3.83;1.58;;;18.70;74.20;;;;;;2005453;28;20193;-74
2022/05/13 00:17:14;;;;;;;3.20;1.80;;;18.70;74.20;;;;;;2005457;28;20209;-75
2022/05/13 00:18:13;;;;;;;3.50;1.27;;;18.80;74.30;;;;;;1998652;28;20433;-73
2022/05/13 00:19:12;;;;;;;4.80;1.77;;;18.70;74.20;;;;;;1997266;28;20174;-74
2022/05/13 00:20:11;;;;;;;1.33;1.00;;;18.80;74.30;;;;;;1997008;28;20166;-72
2022/05/13 00:21:10;;;;;;;3.47;1.80;;;18.70;74.20;;;;;;1997046;28;20185;-73
2022/05/13 00:22:09;;;;;;;4.60;1.65;;;18.70;74.20;;;;;;1997093;28;20206;-73
2022/05/13 00:23:07;;;;;;;5.33;1.50;;;18.70;74.20;;;;;;1996711;28;20505;-72
2022/05/13 00:24:06;;;;;;;2.87;1.67;;;18.70;74.30;;;;;;1996999;28;20177;-73
2022/05/13 00:25:05;;;;;;;3.60;1.42;;;18.70;74.20;;;;;;1997402;28;20270;-73
2022/05/13 00:26:04;;;;;;;4.20;1.70;;;18.70;74.90;;;;;;1996977;28;20716;-73
2022/05/13 00:27:03;;;;;;;2.77;1.47;;;18.70;74.20;;;;;;1996926;28;20996;-74
2022/05/13 00:28:04;;;;;;;2.87;1.50;;;18.70;74.30;;;;;;1988067;28;20563;-73
2022/05/13 00:29:02;;;;;;;4.30;1.70;;;18.80;74.40;;;;;;1988646;28;20873;-73
2022/05/13 00:30:02;;;;;;;4.30;1.40;;;18.70;74.30;;;;;;1996699;28;20181;-74
2022/05/13 00:31:04;;;;;;;5.47;1.45;;;18.70;74.20;;;;;;1996896;28;20594;-72
2022/05/13 00:32:04;;;;;;;4.30;1.40;;;18.70;74.30;;;;;;1997035;28;20217;-74
2022/05/13 00:33:03;;;;;;;4.90;1.95;;;18.70;74.30;;;;;;1996179;28;20173;-74
2022/05/13 00:34:01;;;;;;;2.53;1.67;;;18.70;74.20;;;;;;1996312;28;20297;-74
2022/05/13 00:35:00;;;;;;;8.43;1.63;;;18.70;74.30;;;;;;1996964;28;20495;-74
2022/05/13 00:35:59;;;;;;;2.13;1.42;;;18.70;74.20;;;;;;1996996;28;20200;-74
2022/05/13 00:36:57;;;;;;;6.73;1.40;;;18.70;74.30;;;;;;1988509;28;20194;-72
2022/05/13 00:37:58;;;;;;;4.20;1.30;;;18.70;74.30;;;;;;1988691;28;20202;-74
2022/05/13 00:38:57;;;;;;;3.35;1.40;;;18.70;74.30;;;;;;1996666;28;20170;-73
2022/05/13 00:39:56;;;;;;;2.40;2.00;;;18.70;75.00;;;;;;1988477;28;20303;-72
2022/05/13 00:40:55;;;;;;;1.95;1.20;;;18.70;74.30;;;;;;1988504;28;20278;-73
2022/05/13 00:41:54;;;;;;;6.37;1.50;;;18.70;74.30;;;;;;1995970;28;20324;-72
2022/05/13 00:42:59;;;;;;;7.40;1.40;;;18.70;74.30;;;;;;1996192;28;20600;-73
2022/05/13 00:44:00;;;;;;;2.60;1.38;;;18.80;74.40;;;;;;1996018;28;20483;-73
2022/05/13 00:44:58;;;;;;;8.02;1.60;;;18.70;74.30;;;;;;1996810;28;20534;-73
2022/05/13 00:45:57;;;;;;;2.47;1.40;;;18.70;74.30;;;;;;1996840;28;20236;-73
2022/05/13 00:46:55;;;;;;;6.53;1.40;;;18.70;74.30;;;;;;1996877;28;20301;-74
2022/05/13 00:47:54;;;;;;;2.30;1.30;;;18.70;74.40;;;;;;1996668;28;20197;-73
2022/05/13 00:48:52;;;;;;;4.13;1.40;;;18.70;74.30;;;;;;1996859;28;20181;-72
2022/05/13 00:49:55;;;;;;;3.70;1.43;;;18.70;74.40;;;;;;1996858;28;20601;-73
2022/05/13 00:50:54;;;;;;;2.40;1.40;;;18.70;74.30;;;;;;1996779;28;20614;-73
2022/05/13 00:51:52;;;;;;;2.20;1.37;;;18.70;74.30;;;;;;1988404;28;20202;-72
2022/05/13 00:52:51;;;;;;;1.90;1.40;;;18.70;74.30;;;;;;1988394;28;20206;-73
2022/05/13 00:53:50;;;;;;;5.87;1.53;;;18.70;74.30;;;;;;1996358;28;20256;-73
2022/05/13 00:54:49;;;;;;;8.70;2.07;;;18.70;74.40;;;;;;1988475;28;20414;-73
2022/05/13 00:55:48;;;;;;;3.33;1.70;;;18.70;74.30;;;;;;1988567;28;20171;-73
2022/05/13 00:56:48;;;;;;;2.03;1.07;;;18.70;74.30;;;;;;1996317;28;20293;-73
2022/05/13 00:57:48;;;;;;;3.47;1.20;;;18.70;74.30;;;;;;1996759;28;20174;-73
2022/05/13 00:58:51;;;;;;;18.05;2.40;;;18.70;74.30;;;;;;1996925;28;20412;-74
2022/05/13 00:59:51;;;;;;;4.25;1.20;;;18.70;74.40;;;;;;1996833;28;20197;-73
2022/05/13 01:00:50;;;;;;;5.37;1.73;;;18.70;74.40;;;;;;1996687;28;20170;-74
2022/05/13 01:01:48;;;;;;;3.57;1.47;;;18.70;74.40;;;;;;1996790;28;20420;-74
2022/05/13 01:02:48;;;;;;;7.70;1.23;;;18.70;74.40;;;;;;1996853;28;20205;-72
2022/05/13 01:03:49;;;;;;;2.90;1.37;;;18.70;74.40;;;;;;1988454;28;20242;-73
2022/05/13 01:04:48;;;;;;;2.65;1.77;;;18.70;74.40;;;;;;1988491;28;20444;-72
2022/05/13 01:05:50;;;;;;;2.67;1.57;;;18.70;74.40;;;;;;1995929;28;20186;-72
2022/05/13 01:06:52;;;;;;;4.10;1.27;;;18.70;74.40;;;;;;1996031;28;20797;-72
2022/05/13 01:07:53;;;;;;;5.55;1.40;;;18.70;74.40;;;;;;1996530;28;20448;-73
2022/05/13 01:08:52;;;;;;;1.33;1.00;;;18.70;74.40;;;;;;1996775;28;20655;-73
2022/05/13 01:09:56;;;;;;;2.70;1.53;;;18.70;74.50;;;;;;1987939;28;20436;-73
2022/05/13 01:10:56;;;;;;;6.10;1.50;;;18.70;74.40;;;;;;1988315;28;20183;-72
2022/05/13 01:12:00;;;;;;;1.90;1.25;;;18.70;74.50;;;;;;1988129;28;20308;-72
2022/05/13 01:12:59;;;;;;;4.85;1.70;;;18.70;74.50;;;;;;1996009;28;20162;-72
2022/05/13 01:14:05;;;;;;;6.38;1.40;;;18.70;74.50;;;;;;1996724;28;20197;-73
2022/05/13 01:15:09;;;;;;;2.90;1.50;;;18.70;74.50;;;;;;1997017;28;20158;-72
2022/05/13 01:16:08;;;;;;;3.15;1.45;;;18.70;74.50;;;;;;1996669;28;20844;-72
2022/05/13 01:18:44;;;;;;;5.47;1.65;;;18.70;74.50;;;;;;1996506;28;20538;-73
2022/05/13 01:19:43;;;;;;;2.50;1.20;;;18.60;74.50;;;;;;1996726;28;20181;-72
2022/05/13 01:20:48;;;;;;;2.30;1.20;;;18.70;74.60;;;;;;1996837;28;20184;-73
2022/05/13 01:21:48;;;;;;;3.05;1.45;;;18.70;74.60;;;;;;1996650;28;20162;-73
2022/05/13 01:22:49;;;;;;;7.13;1.50;;;18.70;74.60;;;;;;1996626;28;20534;-74
2022/05/13 01:23:50;;;;;;;5.65;1.88;;;18.70;74.60;;;;;;1996506;28;20202;-73
2022/05/13 01:24:51;;;;;;;8.35;1.80;;;18.70;74.60;;;;;;1996501;28;20174;-73
2022/05/13 01:25:57;;;;;;;4.00;1.40;;;18.70;74.60;;;;;;1996743;28;20322;-73
2022/05/13 01:26:56;;;;;;;3.58;1.30;;;18.70;74.60;;;;;;1996747;28;20562;-73
2022/05/13 01:27:56;;;;;;;3.17;1.37;;;18.60;74.50;;;;;;1988156;28;20178;-73
2022/05/13 01:28:56;;;;;;;2.28;1.20;;;18.70;74.60;;;;;;1988346;28;20209;-74
2022/05/13 01:29:55;;;;;;;3.08;1.63;;;18.70;74.60;;;;;;1996516;28;20261;-73
2022/05/13 01:30:57;;;;;;;4.23;1.50;;;18.70;74.70;;;;;;1988254;28;20185;-73
2022/05/13 01:31:56;;;;;;;6.70;1.63;;;18.70;74.60;;;;;;1988128;28;20198;-73
2022/05/13 01:32:56;;;;;;;1.70;1.03;;;18.70;74.60;;;;;;1996006;28;20221;-73
2022/05/13 01:33:54;;;;;;;4.13;1.60;;;18.70;74.60;;;;;;1995994;28;20331;-73
2022/05/13 01:34:53;;;;;;;5.60;1.83;;;18.60;74.50;;;;;;1996516;28;20273;-74
2022/05/13 01:35:54;;;;;;;2.40;1.20;;;18.70;74.60;;;;;;1996523;28;20170;-74
2022/05/13 01:36:52;;;;;;;4.28;1.48;;;18.70;74.60;;;;;;1988147;28;20222;-71
2022/05/13 01:37:51;;;;;;;2.23;1.20;;;18.70;74.60;;;;;;1988410;28;20537;-73
2022/05/13 01:38:50;;;;;;;2.20;1.30;;;18.70;74.60;;;;;;1995551;28;20174;-73
2022/05/13 01:39:48;;;;;;;3.50;1.55;;;18.60;74.60;;;;;;1996669;28;20186;-73
2022/05/13 01:40:47;;;;;;;2.70;1.03;;;18.60;74.70;;;;;;1996801;28;20232;-72
2022/05/13 01:41:46;;;;;;;3.43;1.77;;;18.60;74.60;;;;;;1996790;28;20204;-73
2022/05/13 01:42:45;;;;;;;3.90;1.60;;;18.70;74.80;;;;;;1997304;28;20602;-73
2022/05/13 01:43:45;;;;;;;4.33;1.40;;;18.70;74.80;;;;;;2003350;28;20645;-74
2022/05/13 01:44:44;;;;;;;2.85;1.10;;;18.60;74.60;;;;;;1997168;28;20215;-75
2022/05/13 01:45:42;;;;;;;1.73;0.90;;;18.60;74.60;;;;;;1997419;28;20327;-73
2022/05/13 01:46:41;;;;;;;4.10;1.37;;;18.70;74.70;;;;;;2004433;28;20257;-73
2022/05/13 01:47:39;;;;;;;1.77;1.40;;;18.60;74.60;;;;;;2004238;28;20209;-72
2022/05/13 01:48:39;;;;;;;3.30;1.80;;;18.70;74.80;;;;;;2004141;28;20174;-73
2022/05/13 01:49:37;;;;;;;2.70;1.30;;;18.60;74.70;;;;;;1993936;28;20186;-72
2022/05/13 01:50:37;;;;;;;2.70;1.43;;;18.70;74.80;;;;;;1992756;28;20418;-72
2022/05/13 01:51:36;;;;;;;2.40;1.30;;;18.60;74.70;;;;;;2001286;28;20642;-75
2022/05/13 01:52:36;;;;;;;3.40;1.30;;;18.60;74.70;;;;;;1999921;28;20417;-72
2022/05/13 01:53:36;;;;;;;7.65;1.08;;;18.60;74.70;;;;;;1997384;28;20561;-73
2022/05/13 01:54:35;;;;;;;1.85;1.27;;;18.60;74.70;;;;;;1989093;28;20673;-72
2022/05/13 01:55:33;;;;;;;2.70;1.60;;;18.60;74.70;;;;;;1989833;28;20285;-72
2022/05/13 01:56:32;;;;;;;6.30;1.53;;;18.60;74.70;;;;;;1997540;28;20629;-72
2022/05/13 01:57:31;;;;;;;5.90;1.70;;;18.60;74.70;;;;;;1998855;28;20177;-73
2022/05/13 01:58:30;;;;;;;3.50;1.98;;;18.60;74.70;;;;;;1998290;28;20173;-73
2022/05/13 01:59:28;;;;;;;3.40;1.40;;;18.60;74.70;;;;;;1998300;28;20184;-72
2022/05/13 02:00:27;;;;;;;2.60;1.60;;;18.60;74.70;;;;;;1998463;28;20265;-72
2022/05/13 02:01:27;;;;;;;2.60;1.43;;;18.60;74.80;;;;;;1998164;28;20182;-73
2022/05/13 02:02:27;;;;;;;3.72;1.42;;;18.60;74.80;;;;;;1998271;28;20397;-73
2022/05/13 02:03:45;;;;;;;1.65;1.10;;;18.60;74.80;;;;;;1998141;28;20177;-72
2022/05/13 02:04:44;;;;;;;7.50;1.58;;;18.60;74.70;;;;;;1998264;28;20161;-73
2022/05/13 02:05:43;;;;;;;2.40;1.40;;;18.60;74.80;;;;;;1989821;28;20590;-72
2022/05/13 02:06:41;;;;;;;2.77;1.10;;;18.70;74.90;;;;;;1989910;28;20198;-74
2022/05/13 02:07:40;;;;;;;1.90;1.50;;;18.60;74.80;;;;;;1997634;28;20182;-72
2022/05/13 02:08:39;;;;;;;2.40;1.40;;;18.70;74.90;;;;;;1998102;28;20574;-73
2022/05/13 02:09:37;;;;;;;4.75;1.30;;;18.70;74.90;;;;;;1998242;28;20174;-72
2022/05/13 02:10:36;;;;;;;2.37;1.20;;;18.70;74.90;;;;;;1997874;28;20205;-73
2022/05/13 02:11:36;;;;;;;2.63;1.57;;;18.60;74.80;;;;;;1997886;28;20181;-74
2022/05/13 02:12:36;;;;;;;2.83;1.77;;;18.60;74.80;;;;;;1998006;28;20206;-73
2022/05/13 02:13:35;;;;;;;5.18;1.20;;;18.60;74.80;;;;;;1989697;28;20190;-73
2022/05/13 02:14:34;;;;;;;5.57;1.67;;;18.60;74.80;;;;;;1989833;28;20170;-73
2022/05/13 02:15:32;;;;;;;2.70;1.13;;;18.60;74.80;;;;;;1998163;28;20177;-74
2022/05/13 02:16:31;;;;;;;4.90;1.60;;;18.60;74.80;;;;;;1998099;28;20195;-73
2022/05/13 02:17:29;;;;;;;2.20;1.00;;;18.60;74.90;;;;;;1998094;28;20621;-73
2022/05/13 02:18:28;;;;;;;2.10;1.13;;;18.60;74.90;;;;;;1997819;28;20602;-72
2022/05/13 02:19:26;;;;;;;1.27;1.10;;;18.60;74.90;;;;;;1998235;28;20168;-72
2022/05/13 02:20:25;;;;;;;2.50;1.33;;;18.60;75.00;;;;;;1997948;28;20257;-73
2022/05/13 02:21:25;;;;;;;4.77;1.93;;;18.60;74.90;;;;;;1998074;28;20170;-73
2022/05/13 02:22:24;;;;;;;10.43;1.42;;;18.60;74.90;;;;;;1997994;28;20170;-73
2022/05/13 02:23:23;;;;;;;1.63;1.40;;;18.60;75.00;;;;;;1997735;28;20558;-73
2022/05/13 02:24:21;;;;;;;1.40;1.10;;;18.60;75.00;;;;;;1997877;28;20170;-73
2022/05/13 02:25:20;;;;;;;1.50;1.17;;;18.60;75.00;;;;;;1997940;28;20488;-73
2022/05/13 02:26:19;;;;;;;5.00;1.40;;;18.60;74.90;;;;;;1997827;28;20373;-72
2022/05/13 02:27:17;;;;;;;3.83;1.40;;;18.60;74.90;;;;;;1997810;28;20511;-73
2022/05/13 02:28:17;;;;;;;3.40;1.27;;;18.60;75.00;;;;;;1998078;28;20176;-72
2022/05/13 02:29:16;;;;;;;6.25;1.30;;;18.60;75.00;;;;;;1997960;28;20564;-73
2022/05/13 02:30:14;;;;;;;3.97;1.70;;;18.60;75.00;;;;;;1998148;28;20182;-73
2022/05/13 02:31:13;;;;;;;3.03;1.20;;;18.60;75.00;;;;;;1997976;28;20162;-73
2022/05/13 02:32:12;;;;;;;3.90;1.30;;;18.60;75.70;;;;;;1997938;28;20213;-73
2022/05/13 02:33:13;;;;;;;6.30;1.43;;;18.60;75.00;;;;;;1997965;28;20531;-73
2022/05/13 02:34:11;;;;;;;1.85;1.10;;;18.60;75.00;;;;;;1997893;28;20169;-72
2022/05/13 02:35:10;;;;;;;3.63;1.37;;;18.60;75.00;;;;;;1997702;28;20182;-73
2022/05/13 02:36:10;;;;;;;3.20;1.40;;;18.60;75.00;;;;;;1998035;28;20173;-72
2022/05/13 02:37:10;;;;;;;1.80;1.03;;;18.60;75.00;;;;;;1997785;28;20201;-73
2022/05/13 02:38:11;;;;;;;2.27;1.20;;;18.60;75.10;;;;;;1997862;28;20891;-74
2022/05/13 02:39:11;;;;;;;1.65;1.27;;;18.60;75.00;;;;;;1997804;28;20896;-72
2022/05/13 02:40:13;;;;;;;4.37;1.40;;;18.60;75.10;;;;;;1997903;28;20193;-73
2022/05/13 02:41:11;;;;;;;1.15;1.05;;;18.60;75.10;;;;;;1997530;28;20417;-73
2022/05/13 02:42:10;;;;;;;3.90;1.40;;;18.60;75.10;;;;;;1997695;28;20181;-74
2022/05/13 02:43:09;;;;;;;4.13;1.53;;;18.60;75.10;;;;;;1989651;28;20187;-73
2022/05/13 02:44:07;;;;;;;1.40;1.10;;;18.60;75.10;;;;;;1989489;28;20402;-74
2022/05/13 02:45:10;;;;;;;2.00;1.00;;;18.60;75.10;;;;;;1997277;28;20178;-74
2022/05/13 02:46:09;;;;;;;1.80;1.20;;;18.60;75.10;;;;;;1997698;28;20533;-74
2022/05/13 02:47:08;;;;;;;3.75;1.55;;;18.60;75.10;;;;;;1997368;28;20284;-73
2022/05/13 02:48:06;;;;;;;5.43;1.97;;;18.50;75.10;;;;;;1989355;28;20189;-72
2022/05/13 02:49:07;;;;;;;4.03;2.03;;;18.60;75.10;;;;;;1989498;28;20624;-73
2022/05/13 02:50:21;;;;;;;2.78;1.15;;;18.60;75.20;;;;;;1997013;28;20192;-73
2022/05/13 02:51:20;;;;;;;4.30;1.30;;;18.50;75.10;;;;;;1997312;28;20244;-73
2022/05/13 02:52:19;;;;;;;3.60;1.10;;;18.50;75.10;;;;;;1997871;28;20401;-73
2022/05/13 02:53:17;;;;;;;4.80;1.30;;;18.50;75.10;;;;;;1997813;28;20393;-73
2022/05/13 02:54:17;;;;;;;1.97;1.20;;;18.50;75.10;;;;;;1997645;28;20261;-73
2022/05/13 02:55:16;;;;;;;1.20;1.10;;;18.60;75.20;;;;;;1988999;28;20174;-73
2022/05/13 02:56:15;;;;;;;1.87;1.27;;;18.50;75.10;;;;;;1989547;28;20638;-73
2022/05/13 02:57:15;;;;;;;3.00;1.90;;;18.60;75.20;;;;;;1997286;28;20421;-74
2022/05/13 02:58:14;;;;;;;1.52;1.15;;;18.60;75.20;;;;;;1989367;28;20258;-73
2022/05/13 02:59:13;;;;;;;5.30;1.80;;;18.60;75.20;;;;;;1989333;28;20222;-72
2022/05/13 03:00:13;;;;;;;2.73;1.50;;;18.60;75.20;;;;;;1997420;28;20496;-72
2022/05/13 03:01:13;;;;;;;2.07;1.30;;;18.60;75.30;;;;;;1997730;28;20401;-73
2022/05/13 03:02:12;;;;;;;2.73;1.90;;;18.50;75.20;;;;;;1989043;28;20417;-72
2022/05/13 03:03:12;;;;;;;1.63;1.10;;;18.50;75.20;;;;;;1989172;28;20960;-73
2022/05/13 03:04:16;;;;;;;2.60;1.40;;;18.50;75.20;;;;;;1996860;28;20397;-73
2022/05/13 03:05:14;;;;;;;2.50;1.27;;;18.50;75.20;;;;;;1997592;28;20440;-73
2022/05/13 03:06:17;;;;;;;2.63;1.57;;;18.60;75.30;;;;;;1997422;28;20413;-73
2022/05/13 03:07:16;;;;;;;2.33;1.13;;;18.50;75.20;;;;;;1997172;28;20224;-73
2022/05/13 03:08:14;;;;;;;5.00;2.00;;;18.50;75.20;;;;;;1997568;28;20813;-73
2022/05/13 03:09:12;;;;;;;2.17;1.23;;;18.60;75.30;;;;;;1997665;28;20166;-75
2022/05/13 03:10:11;;;;;;;5.33;1.50;;;18.60;75.30;;;;;;1997720;28;20177;-73
2022/05/13 03:11:10;;;;;;;2.27;1.20;;;18.60;75.30;;;;;;1997609;28;20174;-73
2022/05/13 03:12:09;;;;;;;1.73;1.03;;;18.50;75.30;;;;;;1997469;28;20695;-73
2022/05/13 03:13:09;;;;;;;2.45;1.50;;;18.60;75.40;;;;;;1997553;28;20189;-75
2022/05/13 03:14:09;;;;;;;2.40;1.20;;;18.50;75.30;;;;;;1998248;28;20150;-74
2022/05/13 03:15:10;;;;;;;3.03;1.10;;;18.50;75.30;;;;;;1997796;28;20770;-74
2022/05/13 03:16:14;;;;;;;3.33;1.30;;;18.50;75.30;;;;;;1997602;28;20170;-74
2022/05/13 03:17:13;;;;;;;3.70;1.50;;;18.60;75.40;;;;;;1989322;28;20847;-74
2022/05/13 03:18:11;;;;;;;2.17;1.37;;;18.50;75.30;;;;;;1989294;28;20182;-73
2022/05/13 03:19:11;;;;;;;2.97;1.20;;;18.60;75.40;;;;;;1997705;28;20189;-74
2022/05/13 03:20:15;;;;;;;3.55;1.25;;;18.60;75.40;;;;;;1997616;28;20162;-75
2022/05/13 03:21:14;;;;;;;2.13;1.30;;;18.50;75.40;;;;;;1997277;28;20154;-74
2022/05/13 03:22:13;;;;;;;2.47;1.73;;;18.60;75.50;;;;;;1989010;28;20186;-74
2022/05/13 03:23:11;;;;;;;4.00;1.50;;;18.50;75.30;;;;;;1989040;28;20175;-73
2022/05/13 03:24:10;;;;;;;4.27;1.83;;;18.60;75.40;;;;;;1996897;28;20184;-74
2022/05/13 03:25:10;;;;;;;5.27;2.10;;;18.50;75.30;;;;;;1997451;28;20634;-74
2022/05/13 03:26:10;;;;;;;4.80;1.90;;;18.50;75.40;;;;;;1997428;28;20170;-73
2022/05/13 03:27:14;;;;;;;2.83;1.27;;;18.50;75.30;;;;;;1996700;28;20974;-73
2022/05/13 03:28:12;;;;;;;3.03;1.67;;;18.50;75.40;;;;;;1996914;28;20398;-74
2022/05/13 03:29:11;;;;;;;3.23;1.50;;;18.60;75.50;;;;;;1997710;28;20871;-74
2022/05/13 03:30:12;;;;;;;1.83;1.30;;;18.50;75.40;;;;;;1997296;28;20174;-74
2022/05/13 03:31:11;;;;;;;1.65;1.20;;;18.50;75.40;;;;;;1997529;28;20701;-74
2022/05/13 03:32:10;;;;;;;8.23;1.80;;;18.60;75.50;;;;;;1997555;28;20217;-74
2022/05/13 03:33:09;;;;;;;2.27;1.60;;;18.50;75.40;;;;;;1997420;28;20173;-73
2022/05/13 03:34:07;;;;;;;1.23;1.07;;;18.50;75.40;;;;;;1997346;28;20173;-73
2022/05/13 03:35:09;;;;;;;2.30;1.20;;;18.50;75.40;;;;;;1997207;28;20178;-73
2022/05/13 03:36:14;;;;;;;1.75;1.25;;;18.50;75.40;;;;;;1996739;28;20185;-73
2022/05/13 03:37:12;;;;;;;3.00;1.57;;;18.60;75.50;;;;;;1996623;28;20181;-73
2022/05/13 03:38:11;;;;;;;2.40;1.10;;;18.50;75.50;;;;;;1997361;28;20398;-75
2022/05/13 03:39:10;;;;;;;4.80;1.67;;;18.50;75.40;;;;;;1997371;28;20192;-73
2022/05/13 03:40:10;;;;;;;7.33;2.37;;;18.50;75.40;;;;;;1997337;28;20181;-73
2022/05/13 03:41:11;;;;;;;2.93;1.33;;;18.50;75.40;;;;;;1997268;28;20615;-74
2022/05/13 03:42:11;;;;;;;4.20;1.58;;;18.50;75.40;;;;;;1997286;28;20727;-74
2022/05/13 03:43:12;;;;;;;2.95;1.50;;;18.50;75.50;;;;;;1997291;28;20664;-73
2022/05/13 03:44:11;;;;;;;3.35;1.02;;;18.50;75.50;;;;;;1997357;28;20170;-73
2022/05/13 03:45:11;;;;;;;5.30;1.40;;;18.50;75.40;;;;;;1997272;28;20185;-73
2022/05/13 03:46:10;;;;;;;5.10;1.58;;;18.60;75.50;;;;;;1988988;28;20732;-75
2022/05/13 03:47:08;;;;;;;6.23;1.60;;;18.50;75.40;;;;;;1988984;28;20696;-73
2022/05/13 03:48:09;;;;;;;1.93;1.30;;;18.50;75.40;;;;;;1996975;28;20633;-73
2022/05/13 03:49:09;;;;;;;3.30;1.30;;;18.50;75.50;;;;;;1997481;28;20594;-73
2022/05/13 03:50:08;;;;;;;4.30;1.25;;;18.50;75.40;;;;;;1997396;28;20181;-73
2022/05/13 03:51:07;;;;;;;7.00;1.80;;;18.60;75.60;;;;;;1997322;28;20248;-73
2022/05/13 03:52:06;;;;;;;2.53;1.43;;;18.50;75.40;;;;;;1997295;28;20291;-73
2022/05/13 03:53:04;;;;;;;8.93;1.50;;;18.50;75.40;;;;;;1997469;28;20170;-73
2022/05/13 03:54:03;;;;;;;4.30;1.53;;;18.60;75.60;;;;;;1997185;28;20598;-73
2022/05/13 03:55:04;;;;;;;2.30;1.40;;;18.50;75.50;;;;;;1997124;28;20170;-73
2022/05/13 03:56:04;;;;;;;2.00;1.40;;;18.50;75.50;;;;;;1997326;28;20491;-72
2022/05/13 03:57:03;;;;;;;2.05;1.38;;;18.50;75.50;;;;;;1988873;28;20222;-74
2022/05/13 03:58:02;;;;;;;2.43;1.30;;;18.50;75.50;;;;;;1988913;28;20189;-72
2022/05/13 03:59:02;;;;;;;2.25;1.00;;;18.50;75.40;;;;;;1997038;28;20416;-72
2022/05/13 04:00:01;;;;;;;1.70;1.23;;;18.50;75.50;;;;;;1988866;28;20175;-73
2022/05/13 04:01:02;;;;;;;4.50;1.50;;;18.50;75.50;;;;;;1988935;28;20175;-73
2022/05/13 04:02:01;;;;;;;2.95;1.83;;;18.50;75.50;;;;;;1997244;28;20176;-73
2022/05/13 04:03:00;;;;;;;1.88;1.10;;;18.50;75.50;;;;;;1997378;28;20182;-73
2022/05/13 04:03:58;;;;;;;2.30;1.17;;;18.50;75.40;;;;;;1997238;28;20180;-73
2022/05/13 04:08:58;;;;;;;2.00;1.33;;;18.50;75.50;;;;;;1997234;28;20157;-73
2022/05/13 04:09:57;;;;;;;2.38;1.40;;;18.50;75.50;;;;;;1997320;28;20162;-74
2022/05/13 04:10:55;;;;;;;2.10;1.27;;;18.50;75.50;;;;;;1988667;28;20214;-74
2022/05/13 04:16:06;;;;;;;2.65;1.15;;;18.50;75.50;;;;;;1997292;28;20157;-73
2022/05/13 04:17:04;;;;;;;3.33;1.33;;;18.50;75.50;;;;;;1996473;28;20193;-73
2022/05/13 04:18:05;;;;;;;4.23;1.70;;;18.50;75.50;;;;;;1996416;28;20488;-74
2022/05/13 04:19:04;;;;;;;2.03;1.35;;;18.50;75.50;;;;;;1988004;28;20273;-74
2022/05/13 04:20:04;;;;;;;3.70;1.83;;;18.50;75.50;;;;;;1988663;28;20175;-73
2022/05/13 04:21:06;;;;;;;3.63;1.40;;;18.50;75.50;;;;;;1996515;28;20619;-73
2022/05/13 04:22:04;;;;;;;5.17;1.50;;;18.50;75.50;;;;;;1989442;28;20179;-74
2022/05/13 04:23:04;;;;;;;2.07;1.30;;;18.50;75.50;;;;;;1989590;28;20889;-74
2022/05/13 04:24:08;;;;;;;4.10;1.70;;;18.50;75.50;;;;;;1989714;28;20276;-73
2022/05/13 04:25:07;;;;;;;2.10;1.35;;;18.50;75.40;;;;;;1989318;28;20171;-73
2022/05/13 04:26:05;;;;;;;2.93;0.90;;;18.50;75.40;;;;;;1989434;28;20185;-73
2022/05/13 04:27:05;;;;;;;5.60;1.33;;;18.50;75.50;;;;;;1989214;28;20468;-74
2022/05/13 04:28:03;;;;;;;2.30;1.23;;;18.50;75.40;;;;;;1988714;28;20217;-75
2022/05/13 04:29:03;;;;;;;7.33;2.00;;;18.50;75.40;;;;;;1994867;28;20445;-74
2022/05/13 04:30:01;;;;;;;4.60;1.38;;;18.50;75.40;;;;;;1997032;28;20190;-74
2022/05/13 04:31:01;;;;;;;2.50;1.30;;;18.50;75.40;;;;;;1997279;28;20206;-75
2022/05/13 04:32:00;;;;;;;4.37;2.27;;;18.50;75.40;;;;;;1997838;28;20238;-75
2022/05/13 04:32:58;;;;;;;3.43;1.37;;;18.50;75.40;;;;;;1995645;28;20453;-75
2022/05/13 04:33:58;;;;;;;6.00;2.00;;;18.50;75.40;;;;;;1987370;29;20199;-74
2022/05/13 04:34:56;;;;;;;1.50;0.98;;;18.50;75.40;;;;;;1982744;29;20183;-74
2022/05/13 04:35:55;;;;;;;11.10;1.30;;;18.40;75.30;;;;;;1988631;28;20183;-74
2022/05/13 04:36:54;;;;;;;3.90;1.50;;;18.50;75.40;;;;;;1989706;28;20238;-74
2022/05/13 04:37:52;;;;;;;3.03;1.50;;;18.50;75.40;;;;;;1989734;28;20638;-74
2022/05/13 04:38:53;;;;;;;4.50;1.20;;;18.50;75.40;;;;;;1989221;28;20414;-75
2022/05/13 04:39:53;;;;;;;2.28;1.10;;;18.50;75.40;;;;;;1989672;28;20635;-72
2022/05/13 04:40:53;;;;;;;2.33;1.30;;;18.50;75.40;;;;;;1989490;28;20273;-73
2022/05/13 04:43:10;;;;;;;1.50;1.20;;;18.50;75.40;;;;;;1989706;28;20790;-73
2022/05/13 04:44:09;;;;;;;3.37;1.23;;;18.50;75.40;;;;;;1989369;28;20393;-72
2022/05/13 04:45:09;;;;;;;4.63;1.10;;;18.50;75.40;;;;;;1989331;28;20413;-72
2022/05/13 04:46:07;;;;;;;3.63;1.67;;;18.50;75.40;;;;;;1989413;28;20477;-74
2022/05/13 04:48:15;;;;;;;4.40;1.60;;;18.50;75.40;;;;;;1989062;28;20190;-72
2022/05/13 04:48:26;;;;;;;3.65;1.20;;;18.50;75.40;;;;;;1989109;28;20520;-72
2022/05/13 04:49:24;;;;;;;5.30;1.85;;;18.50;75.40;;;;;;1989309;28;20525;-73
2022/05/13 04:50:23;;;;;;;2.93;1.00;;;18.50;75.40;;;;;;1989389;28;20178;-74
2022/05/13 04:51:23;;;;;;;7.40;2.00;;;18.50;75.40;;;;;;1989138;28;20179;-73
2022/05/13 04:52:24;;;;;;;8.87;1.63;;;18.50;75.40;;;;;;1996287;28;20291;-72
2022/05/13 04:53:25;;;;;;;3.07;1.23;;;18.50;75.40;;;;;;1996305;28;20555;-73
2022/05/13 04:54:24;;;;;;;3.80;1.30;;;18.50;75.40;;;;;;1988726;28;20413;-75
2022/05/13 04:55:25;;;;;;;5.20;1.50;;;18.50;75.40;;;;;;1988833;28;20618;-73
2022/05/13 04:56:25;;;;;;;6.00;1.60;;;18.50;75.50;;;;;;1996293;28;20587;-73
2022/05/13 04:57:24;;;;;;;3.97;1.25;;;18.50;75.40;;;;;;1989297;28;20257;-75
2022/05/13 04:58:24;;;;;;;2.50;1.47;;;18.50;75.50;;;;;;1989307;28;20649;-74
2022/05/13 04:59:22;;;;;;;2.83;1.35;;;18.50;75.50;;;;;;1989077;28;20402;-73
2022/05/13 05:00:21;;;;;;;1.20;1.03;;;18.50;75.40;;;;;;1989131;28;20189;-73
2022/05/13 05:01:21;;;;;;;3.23;1.47;;;18.50;75.50;;;;;;1989138;28;20505;-72
2022/05/13 05:02:19;;;;;;;5.65;1.55;;;18.50;75.50;;;;;;1988362;28;20203;-74
2022/05/13 05:03:20;;;;;;;6.63;1.40;;;18.50;75.50;;;;;;1988745;28;20185;-73
2022/05/13 05:04:18;;;;;;;4.32;2.10;;;18.50;75.50;;;;;;1988018;28;20237;-74
2022/05/13 05:05:17;;;;;;;1.40;1.03;;;18.50;75.40;;;;;;1988545;28;20210;-73
2022/05/13 05:06:16;;;;;;;5.20;1.27;;;18.60;75.50;;;;;;1996025;28;20523;-73
2022/05/13 05:07:15;;;;;;;3.67;1.35;;;18.50;75.50;;;;;;1996469;28;20197;-72
2022/05/13 05:08:15;;;;;;;4.90;1.73;;;18.50;75.40;;;;;;1989497;28;20210;-74
2022/05/13 05:09:13;;;;;;;1.85;0.98;;;18.50;75.40;;;;;;1989063;28;20175;-73
2022/05/13 05:10:12;;;;;;;1.53;1.23;;;18.50;75.40;;;;;;1988446;28;20297;-73
2022/05/13 05:11:13;;;;;;;1.80;1.37;;;18.50;75.50;;;;;;1988431;28;20178;-72
2022/05/13 05:12:12;;;;;;;1.80;1.10;;;18.50;75.40;;;;;;1988944;28;20614;-73
2022/05/13 05:13:17;;;;;;;3.33;1.40;;;18.50;75.40;;;;;;1988869;28;20474;-74
2022/05/13 05:14:16;;;;;;;2.13;1.23;;;18.50;75.40;;;;;;1989008;28;20161;-72
2022/05/13 05:15:15;;;;;;;2.30;1.40;;;18.50;75.40;;;;;;1988965;28;20230;-73
2022/05/13 05:16:15;;;;;;;7.00;1.30;;;18.50;75.50;;;;;;1988341;28;20225;-73
2022/05/13 05:17:13;;;;;;;1.83;1.35;;;18.50;75.40;;;;;;1988460;28;20554;-73
2022/05/13 05:18:13;;;;;;;2.17;1.47;;;18.50;75.40;;;;;;1988877;28;20201;-73
2022/05/13 05:19:12;;;;;;;3.08;1.50;;;18.60;75.60;;;;;;1996715;28;20221;-73
2022/05/13 05:20:11;;;;;;;1.40;1.20;;;18.50;75.50;;;;;;1996739;28;20188;-72
2022/05/13 05:21:10;;;;;;;2.90;1.40;;;18.50;75.50;;;;;;1996834;28;20480;-73